Milesville, South Dakota
Current Conditions -  °F | °C
As of 5:19 PM on Tuesday 25 Nov 2014 (Local Time) from KPIR Reporting Station
Overcast Overcast  
Wind Chill: 27°   Ceiling: 3400
Heat Index: 33°   Visibility: 10mi
Dew Point: 31°   Wind: 7mph
Humidity: 92%   Direction: 260°W
Pressure: 29.78"   Gusts: NA
Location:  44.46°N, 101.68°W
Report Text: KPIR 260019Z AUTO 26006KT 10SM SCT014 BKN034 OVC060 01/M01 A2978 RMK AO2 RAB2356E02SNE2356 P0000 T00061006
Loading
Personal Weather Stations






























Interactive Weather Map New forecast layout! Learn more

10-Day Weather Forecast

Advertisements
Track Severe Weather on mobile